עמוד ראשי
METAR-TAF:

METAR-TAF

שדות תעופה :

Udon Thani, תאילנד

קו רוחב: 17-23N, קו אורך: 102-48E, גובה: 177מטר

תצפית מזג אוויר נוכחית

הדו"ח נערך לפני 28דקות, בשעה 12:00 UTC
רוח 5קשר מכיוון מערב/דרום-מערב
טמפרטורת 30 צלסיוס
לחות 66%
לחץ 1000 hPa
ראות 10 קילומטר או יותר
מעט עננים בגובה 3000רגל
עננים בינוניים בגובה 10000רגל

METAR: VTUD 251200Z 24005KT 9999 FEW030 BKN100 30/23 Q1000 NOSIG

זמן: 19:28 (12:28 UTC)

תחזית

הדו"ח נערך לפני 1 שעות ו 28דקות, בשעה 11:00 UTC
תחזית בתוקף מ 25 ב 12 UTC עד 26 ב 12 UTC
רוח 6קשר מכיוון דרום-מערב
ראות: 8000מטר
עננים פזורים בגובה 2500רגל
זמנית מ -
26 ב 07 UTC עד 26 ב 12 UTC
רוח 15קשר עם כיוונים משתנים
ראות: 4000מטר
מעט עננים בגובה 1800רגל , קומולונימבוס.
עננים בינוניים בגובה 2500רגל
סופת רעמים, גשם,

TAF: VTUD 251100Z 2512/2612 22006KT 8000 SCT025 TEMPO 2607/2612 VRB15KT 4000 TSRA FEW018CB BKN025

תצפיות ותחזיות מזג אוויר לגבי יותר מ- 4,000 שדות תעופה ברחבי העולם. דוחות METAR ו- TAF.

התחנות הזמינות מסומנות בנקודות צהובות ואדומות על גבי המפה.

העבר את העכבר לנקודה הצבעונית על מנת לראות את שם התחנה.

לאחר מכן, לחץ כדי לראות את תוכן ואת תחזיות מזג האוויר.

כדי לשנות את המפה: לחץ על הכפתורים הירוקים עם הפלוס השחור כדי להתקרב; על הכפתור הירוק עם המקף כדי להתרחק; או בחיצים הירוקים למפות סמוכות.


METAR-TAF: